sensor_id;sensor_type;location;lat;lon;timestamp;pressure;altitude;pressure_sealevel;temperature;humidity
58739;BME280;44512;53.046;18.604;2022-07-12T00:07:11;101952.91;;;17.29;61.28
58739;BME280;44512;53.046;18.604;2022-07-12T00:17:39;101949.37;;;17.22;61.10
58739;BME280;44512;53.046;18.604;2022-07-12T00:28:08;101951.72;;;17.11;61.05
58739;BME280;44512;53.046;18.604;2022-07-12T00:38:36;101945.39;;;17.04;61.05
58739;BME280;44512;53.046;18.604;2022-07-12T00:49:04;101946.66;;;16.95;61.01
58739;BME280;44512;53.046;18.604;2022-07-12T00:59:32;101942.49;;;16.86;61.03
58739;BME280;44512;53.046;18.604;2022-07-12T01:10:02;101932.60;;;16.78;61.08
58739;BME280;44512;53.046;18.604;2022-07-12T01:20:29;101949.40;;;16.68;61.08
58739;BME280;44512;53.046;18.604;2022-07-12T01:30:58;101951.30;;;16.61;61.13
58739;BME280;44512;53.046;18.604;2022-07-12T01:41:27;101938.67;;;16.54;61.12
58739;BME280;44512;53.046;18.604;2022-07-12T01:51:58;101938.69;;;16.47;61.19
58739;BME280;44512;53.046;18.604;2022-07-12T02:02:25;101930.71;;;16.39;61.31
58739;BME280;44512;53.046;18.604;2022-07-12T02:12:51;101926.50;;;16.30;61.44
58739;BME280;44512;53.046;18.604;2022-07-12T02:23:19;101916.81;;;16.21;61.46
58739;BME280;44512;53.046;18.604;2022-07-12T02:33:48;101916.38;;;16.10;61.54
58739;BME280;44512;53.046;18.604;2022-07-12T02:44:16;101912.16;;;16.01;61.70
58739;BME280;44512;53.046;18.604;2022-07-12T02:54:44;101908.15;;;15.91;61.79
58739;BME280;44512;53.046;18.604;2022-07-12T03:05:13;101911.70;;;15.78;62.06
58739;BME280;44512;53.046;18.604;2022-07-12T03:15:41;101912.11;;;15.75;62.19
58739;BME280;44512;53.046;18.604;2022-07-12T03:26:10;101918.40;;;15.69;62.44
58739;BME280;44512;53.046;18.604;2022-07-12T03:36:38;101926.36;;;15.63;62.91
58739;BME280;44512;53.046;18.604;2022-07-12T03:47:06;101912.02;;;15.55;63.59
58739;BME280;44512;53.046;18.604;2022-07-12T03:57:35;101914.95;;;15.53;64.17
58739;BME280;44512;53.046;18.604;2022-07-12T04:08:04;101902.57;;;15.51;64.63
58739;BME280;44512;53.046;18.604;2022-07-12T04:18:32;101909.05;;;15.50;65.15
58739;BME280;44512;53.046;18.604;2022-07-12T04:29:00;101906.38;;;15.56;65.42
58739;BME280;44512;53.046;18.604;2022-07-12T04:39:28;101904.48;;;15.57;65.83
58739;BME280;44512;53.046;18.604;2022-07-12T04:49:56;101908.67;;;15.59;66.58
58739;BME280;44512;53.046;18.604;2022-07-12T05:00:25;101904.89;;;15.60;67.30
58739;BME280;44512;53.046;18.604;2022-07-12T05:10:53;101900.35;;;15.74;67.56
58739;BME280;44512;53.046;18.604;2022-07-12T05:21:22;101898.06;;;15.84;68.16
58739;BME280;44512;53.046;18.604;2022-07-12T05:31:50;101907.09;;;15.92;68.74
58739;BME280;44512;53.046;18.604;2022-07-12T05:42:19;101902.30;;;16.00;68.89
58739;BME280;44512;53.046;18.604;2022-07-12T05:52:47;101888.66;;;16.13;69.00
58739;BME280;44512;53.046;18.604;2022-07-12T06:03:15;101899.59;;;16.27;69.20
58739;BME280;44512;53.046;18.604;2022-07-12T06:13:43;101902.33;;;16.40;69.11
58739;BME280;44512;53.046;18.604;2022-07-12T06:24:12;101893.48;;;16.51;69.06
58739;BME280;44512;53.046;18.604;2022-07-12T06:34:40;101883.18;;;16.66;69.06
58739;BME280;44512;53.046;18.604;2022-07-12T06:45:09;101886.34;;;16.77;68.68
58739;BME280;44512;53.046;18.604;2022-07-12T06:55:37;101872.23;;;16.86;68.04
58739;BME280;44512;53.046;18.604;2022-07-12T07:06:05;101874.73;;;17.01;66.96
58739;BME280;44512;53.046;18.604;2022-07-12T07:16:34;101874.66;;;17.14;66.18
58739;BME280;44512;53.046;18.604;2022-07-12T07:27:02;101880.09;;;17.28;65.25
58739;BME280;44512;53.046;18.604;2022-07-12T07:37:30;101873.51;;;17.42;63.68
58739;BME280;44512;53.046;18.604;2022-07-12T07:47:59;101876.16;;;17.55;62.33
58739;BME280;44512;53.046;18.604;2022-07-12T07:58:27;101864.09;;;17.69;60.35
58739;BME280;44512;53.046;18.604;2022-07-12T08:08:55;101890.37;;;17.84;59.94
58739;BME280;44512;53.046;18.604;2022-07-12T08:19:24;101867.91;;;18.00;58.06
58739;BME280;44512;53.046;18.604;2022-07-12T08:29:52;101868.20;;;18.17;56.45
58739;BME280;44512;53.046;18.604;2022-07-12T08:40:20;101864.66;;;18.35;55.27
58739;BME280;44512;53.046;18.604;2022-07-12T09:01:38;101870.30;;;18.65;52.98
58739;BME280;44512;53.046;18.604;2022-07-12T09:11:46;101878.20;;;18.80;53.14
58739;BME280;44512;53.046;18.604;2022-07-12T09:22:15;101847.89;;;18.93;52.07
58739;BME280;44512;53.046;18.604;2022-07-12T09:32:49;101857.62;;;19.07;51.27
58739;BME280;44512;53.046;18.604;2022-07-12T09:43:12;101867.16;;;19.23;49.49
58739;BME280;44512;53.046;18.604;2022-07-12T09:53:43;101846.23;;;19.40;47.28
58739;BME280;44512;53.046;18.604;2022-07-12T10:04:08;101849.15;;;19.57;47.55
58739;BME280;44512;53.046;18.604;2022-07-12T10:14:37;101844.11;;;19.72;46.38
58739;BME280;44512;53.046;18.604;2022-07-12T10:25:51;101837.59;;;19.85;46.29
58739;BME280;44512;53.046;18.604;2022-07-12T10:35:32;101853.85;;;19.98;45.05
58739;BME280;44512;53.046;18.604;2022-07-12T10:51:15;101834.54;;;20.17;44.86
58739;BME280;44512;53.046;18.604;2022-07-12T11:01:46;101836.21;;;20.29;44.44
58739;BME280;44512;53.046;18.604;2022-07-12T11:12:10;101818.87;;;20.41;43.98
58739;BME280;44512;53.046;18.604;2022-07-12T11:22:41;101817.01;;;20.53;43.80
58739;BME280;44512;53.046;18.604;2022-07-12T11:33:07;101810.65;;;20.64;43.84
58739;BME280;44512;53.046;18.604;2022-07-12T11:43:36;101783.36;;;20.74;43.50
58739;BME280;44512;53.046;18.604;2022-07-12T11:54:03;101778.66;;;20.87;43.24
58739;BME280;44512;53.046;18.604;2022-07-12T12:04:32;101781.37;;;20.98;42.93
58739;BME280;44512;53.046;18.604;2022-07-12T12:15:08;101772.68;;;21.18;41.74
58739;BME280;44512;53.046;18.604;2022-07-12T12:25:30;101770.25;;;21.33;42.35
58739;BME280;44512;53.046;18.604;2022-07-12T12:56:53;101761.05;;;21.73;41.60
58739;BME280;44512;53.046;18.604;2022-07-12T13:07:21;101751.38;;;21.88;41.01
58739;BME280;44512;53.046;18.604;2022-07-12T13:17:50;101748.11;;;22.07;40.63
58739;BME280;44512;53.046;18.604;2022-07-12T13:28:18;101773.41;;;22.21;40.83
58739;BME280;44512;53.046;18.604;2022-07-12T13:38:47;101749.34;;;22.33;40.29
58739;BME280;44512;53.046;18.604;2022-07-12T13:49:15;101739.59;;;22.48;40.46
58739;BME280;44512;53.046;18.604;2022-07-12T13:59:43;101736.03;;;22.69;38.51
58739;BME280;44512;53.046;18.604;2022-07-12T14:10:12;101734.11;;;22.92;38.19
58739;BME280;44512;53.046;18.604;2022-07-12T14:20:40;101769.59;;;23.05;37.38
58739;BME280;44512;53.046;18.604;2022-07-12T14:31:08;101737.77;;;23.24;36.91
58739;BME280;44512;53.046;18.604;2022-07-12T14:41:36;101746.30;;;23.50;35.75
58739;BME280;44512;53.046;18.604;2022-07-12T14:52:05;101723.90;;;23.73;35.26
58739;BME280;44512;53.046;18.604;2022-07-12T15:02:36;101739.50;;;23.89;35.28
58739;BME280;44512;53.046;18.604;2022-07-12T15:13:01;101725.16;;;23.98;34.12
58739;BME280;44512;53.046;18.604;2022-07-12T15:23:29;101712.20;;;24.03;34.49
58739;BME280;44512;53.046;18.604;2022-07-12T15:33:59;101722.56;;;24.23;33.66
58739;BME280;44512;53.046;18.604;2022-07-12T15:44:26;101714.94;;;24.35;33.73
58739;BME280;44512;53.046;18.604;2022-07-12T15:54:54;101730.20;;;24.48;33.46
58739;BME280;44512;53.046;18.604;2022-07-12T16:05:23;101726.15;;;24.66;32.91
58739;BME280;44512;53.046;18.604;2022-07-12T16:15:51;101709.88;;;24.90;32.56
58739;BME280;44512;53.046;18.604;2022-07-12T16:26:19;101720.75;;;25.12;31.64
58739;BME280;44512;53.046;18.604;2022-07-12T16:36:48;101708.88;;;25.37;31.41
58739;BME280;44512;53.046;18.604;2022-07-12T16:47:16;101715.84;;;25.55;30.28
58739;BME280;44512;53.046;18.604;2022-07-12T16:57:44;101709.18;;;25.71;30.23
58739;BME280;44512;53.046;18.604;2022-07-12T17:08:13;101718.06;;;25.83;30.14
58739;BME280;44512;53.046;18.604;2022-07-12T17:18:41;101718.63;;;25.90;29.59
58739;BME280;44512;53.046;18.604;2022-07-12T17:29:09;101728.62;;;25.76;29.85
58739;BME280;44512;53.046;18.604;2022-07-12T17:39:38;101711.40;;;25.49;30.46
58739;BME280;44512;53.046;18.604;2022-07-12T17:50:07;101725.77;;;25.20;30.61
58739;BME280;44512;53.046;18.604;2022-07-12T18:00:34;101714.59;;;24.89;30.70
58739;BME280;44512;53.046;18.604;2022-07-12T18:11:03;101700.96;;;24.67;31.32
58739;BME280;44512;53.046;18.604;2022-07-12T18:21:32;101717.20;;;24.49;31.94
58739;BME280;44512;53.046;18.604;2022-07-12T18:31:59;101701.05;;;24.30;32.51
58739;BME280;44512;53.046;18.604;2022-07-12T18:42:28;101703.94;;;24.08;32.99
58739;BME280;44512;53.046;18.604;2022-07-12T18:52:56;101701.37;;;23.97;33.35
58739;BME280;44512;53.046;18.604;2022-07-12T19:03:24;101692.98;;;23.81;33.65
58739;BME280;44512;53.046;18.604;2022-07-12T19:13:53;101701.71;;;23.63;34.27
58739;BME280;44512;53.046;18.604;2022-07-12T19:24:21;101717.24;;;23.42;34.84
58739;BME280;44512;53.046;18.604;2022-07-12T19:34:50;101704.31;;;23.21;35.45
58739;BME280;44512;53.046;18.604;2022-07-12T19:45:18;101716.84;;;23.01;35.87
58739;BME280;44512;53.046;18.604;2022-07-12T19:55:46;101719.72;;;22.90;36.14
58739;BME280;44512;53.046;18.604;2022-07-12T20:06:14;101726.65;;;22.70;36.64
58739;BME280;44512;53.046;18.604;2022-07-12T20:16:42;101727.36;;;22.60;37.10
58739;BME280;44512;53.046;18.604;2022-07-12T20:27:11;101722.48;;;22.46;37.55
58739;BME280;44512;53.046;18.604;2022-07-12T20:37:39;101730.46;;;22.25;38.09
58739;BME280;44512;53.046;18.604;2022-07-12T20:48:07;101724.96;;;22.08;38.71
58739;BME280;44512;53.046;18.604;2022-07-12T20:58:36;101726.80;;;22.03;39.42
58739;BME280;44512;53.046;18.604;2022-07-12T21:09:05;101709.43;;;21.85;40.53
58739;BME280;44512;53.046;18.604;2022-07-12T21:19:32;101708.53;;;21.63;41.76
58739;BME280;44512;53.046;18.604;2022-07-12T21:30:01;101699.44;;;21.46;43.14
58739;BME280;44512;53.046;18.604;2022-07-12T21:40:29;101673.87;;;21.33;44.57
58739;BME280;44512;53.046;18.604;2022-07-12T21:50:58;101679.81;;;21.14;46.38
58739;BME280;44512;53.046;18.604;2022-07-12T22:01:26;101679.31;;;21.00;47.82
58739;BME280;44512;53.046;18.604;2022-07-12T22:11:54;101676.11;;;20.91;48.97
58739;BME280;44512;53.046;18.604;2022-07-12T22:22:22;101666.25;;;20.78;50.00
58739;BME280;44512;53.046;18.604;2022-07-12T22:32:51;101656.10;;;20.67;51.02
58739;BME280;44512;53.046;18.604;2022-07-12T22:43:19;101665.49;;;20.54;51.84
58739;BME280;44512;53.046;18.604;2022-07-12T22:53:48;101652.97;;;20.47;52.54
58739;BME280;44512;53.046;18.604;2022-07-12T23:04:16;101639.56;;;20.39;53.09
58739;BME280;44512;53.046;18.604;2022-07-12T23:14:44;101666.37;;;20.32;53.72
58739;BME280;44512;53.046;18.604;2022-07-12T23:25:13;101654.18;;;20.27;54.12
58739;BME280;44512;53.046;18.604;2022-07-12T23:35:41;101649.65;;;20.21;54.36
58739;BME280;44512;53.046;18.604;2022-07-12T23:46:09;101632.23;;;20.04;54.94
58739;BME280;44512;53.046;18.604;2022-07-12T23:56:38;101628.16;;;19.95;55.14
